createdAt,value
2023-01-11T00:01:03.552Z,6.27
2023-01-11T00:03:32.220Z,7.07
2023-01-11T00:06:01.282Z,8.20
2023-01-11T00:08:30.579Z,6.47
2023-01-11T00:10:58.412Z,8.23
2023-01-11T00:13:26.292Z,6.20
2023-01-11T00:15:54.195Z,8.73
2023-01-11T00:18:22.274Z,7.03
2023-01-11T00:20:50.167Z,11.13
2023-01-11T00:23:18.130Z,7.43
2023-01-11T00:25:47.434Z,9.13
2023-01-11T00:28:15.337Z,6.37
2023-01-11T00:30:43.333Z,8.67
2023-01-11T00:33:12.041Z,6.70
2023-01-11T00:35:39.955Z,7.83
2023-01-11T00:38:07.909Z,5.43
2023-01-11T00:40:35.812Z,8.90
2023-01-11T00:43:22.947Z,7.00
2023-01-11T00:46:08.165Z,8.40
2023-01-11T00:48:36.088Z,6.53
2023-01-11T00:51:04.005Z,6.43
2023-01-11T00:53:31.826Z,7.53
2023-01-11T00:55:59.794Z,7.93
2023-01-11T00:58:29.013Z,7.47
2023-01-11T01:00:57.018Z,9.50
2023-01-11T01:03:25.012Z,7.97
2023-01-11T01:05:55.980Z,9.87
2023-01-11T01:08:24.074Z,9.63
2023-01-11T01:10:53.242Z,8.90
2023-01-11T01:13:38.795Z,10.03
2023-01-11T01:16:08.899Z,7.60
2023-01-11T01:18:36.817Z,6.37
2023-01-11T01:21:04.816Z,9.77
2023-01-11T01:23:32.735Z,7.30
2023-01-11T01:26:04.560Z,6.30
2023-01-11T01:28:32.480Z,9.53
2023-01-11T01:31:00.802Z,7.30
2023-01-11T01:33:30.075Z,7.63
2023-01-11T01:35:58.261Z,6.23
2023-01-11T01:38:26.429Z,7.33
2023-01-11T01:40:54.283Z,7.77
2023-01-11T01:43:22.224Z,7.77
2023-01-11T01:45:53.085Z,8.93
2023-01-11T01:48:23.832Z,7.10
2023-01-11T01:50:56.816Z,8.43
2023-01-11T01:53:31.790Z,5.00
2023-01-11T01:56:02.867Z,6.37
2023-01-11T01:58:37.311Z,5.70
2023-01-11T02:01:20.433Z,6.43
2023-01-11T02:03:49.494Z,5.53
2023-01-11T02:06:21.060Z,4.63
2023-01-11T02:09:02.152Z,5.27
2023-01-11T02:11:33.274Z,4.30
2023-01-11T02:14:04.362Z,7.40
2023-01-11T02:16:32.199Z,5.67
2023-01-11T02:19:02.085Z,8.23
2023-01-11T02:21:49.100Z,5.37
2023-01-11T02:24:44.346Z,6.20
2023-01-11T02:27:30.314Z,5.43
2023-01-11T02:30:15.430Z,4.13
2023-01-11T02:32:54.103Z,4.27
2023-01-11T02:35:34.747Z,2.43
2023-01-11T02:38:07.768Z,5.33
2023-01-11T02:40:45.036Z,4.67
2023-01-11T02:43:35.875Z,3.93
2023-01-11T02:46:09.859Z,3.77
2023-01-11T02:48:44.647Z,3.57
2023-01-11T02:51:14.352Z,2.67
2023-01-11T02:53:47.388Z,4.07
2023-01-11T02:56:18.766Z,3.40
2023-01-11T02:58:49.164Z,4.10
2023-01-11T03:01:22.760Z,3.80
2023-01-11T03:03:51.528Z,3.20
2023-01-11T03:06:23.069Z,3.83
2023-01-11T03:09:08.348Z,4.00
2023-01-11T03:12:06.450Z,2.60
2023-01-11T03:14:45.063Z,3.70
2023-01-11T03:17:26.333Z,2.43
2023-01-11T03:19:55.694Z,3.53
2023-01-11T03:22:30.137Z,3.10
2023-01-11T03:25:06.973Z,2.93
2023-01-11T03:27:39.779Z,2.50
2023-01-11T03:30:13.158Z,1.97
2023-01-11T03:32:48.147Z,2.50
2023-01-11T03:35:26.374Z,3.80
2023-01-11T03:37:58.971Z,1.87
2023-01-11T03:40:31.203Z,2.87
2023-01-11T03:43:13.456Z,2.70
2023-01-11T03:45:47.299Z,3.23
2023-01-11T03:48:21.379Z,2.80
2023-01-11T03:50:51.694Z,1.80
2023-01-11T03:53:21.902Z,1.93
2023-01-11T03:55:54.872Z,1.97
2023-01-11T03:58:22.987Z,2.03
2023-01-11T04:00:51.755Z,1.63
2023-01-11T04:03:20.970Z,1.50
2023-01-11T04:05:54.132Z,1.77
2023-01-11T04:08:22.059Z,2.87
2023-01-11T04:10:49.926Z,3.40
2023-01-11T04:13:17.979Z,1.83
2023-01-11T04:15:45.932Z,3.10
2023-01-11T04:18:13.779Z,2.93
2023-01-11T04:20:43.079Z,1.53
2023-01-11T04:23:11.330Z,2.43
2023-01-11T04:25:39.221Z,2.97
2023-01-11T04:28:07.158Z,1.37
2023-01-11T04:30:36.078Z,1.50
2023-01-11T04:33:04.311Z,2.00
2023-01-11T04:35:32.327Z,2.00
2023-01-11T04:38:01.561Z,1.57
2023-01-11T04:40:29.419Z,1.77
2023-01-11T04:42:56.339Z,1.40
2023-01-11T04:45:24.587Z,1.83
2023-01-11T04:47:55.554Z,1.40
2023-01-11T04:50:23.990Z,2.30
2023-01-11T04:52:52.052Z,1.30
2023-01-11T04:55:21.660Z,2.57
2023-01-11T04:57:49.645Z,3.30
2023-01-11T05:00:18.391Z,1.43
2023-01-11T05:02:46.339Z,1.57
2023-01-11T05:05:14.461Z,1.87
2023-01-11T05:07:42.384Z,1.37
2023-01-11T05:10:11.384Z,1.30
2023-01-11T05:12:40.777Z,1.20
2023-01-11T05:15:10.270Z,1.50
2023-01-11T05:17:38.241Z,1.83
2023-01-11T05:20:06.761Z,1.33
2023-01-11T05:22:34.658Z,2.10
2023-01-11T05:25:02.471Z,1.50
2023-01-11T05:27:30.477Z,1.20
2023-01-11T05:29:59.913Z,1.67
2023-01-11T05:32:27.779Z,1.20
2023-01-11T05:34:55.761Z,1.30
2023-01-11T05:37:23.782Z,1.47
2023-01-11T05:39:51.576Z,1.20
2023-01-11T05:42:19.670Z,1.40
2023-01-11T05:45:05.089Z,1.37
2023-01-11T05:47:34.419Z,1.47
2023-01-11T05:50:02.225Z,2.27
2023-01-11T05:52:30.082Z,1.67
2023-01-11T05:54:58.727Z,2.33
2023-01-11T05:57:26.549Z,1.20
2023-01-11T05:59:54.490Z,1.27
2023-01-11T06:02:22.635Z,3.60
2023-01-11T06:04:51.957Z,1.20
2023-01-11T06:07:19.819Z,1.30
2023-01-11T06:09:47.856Z,1.53
2023-01-11T06:12:15.701Z,1.93
2023-01-11T06:14:43.575Z,1.83
2023-01-11T06:17:11.473Z,1.23
2023-01-11T06:19:39.322Z,1.77
2023-01-11T06:22:08.804Z,1.87
2023-01-11T06:24:37.179Z,1.20
2023-01-11T06:27:05.071Z,1.33
2023-01-11T06:29:33.035Z,2.20
2023-01-11T06:32:00.891Z,1.27
2023-01-11T06:34:28.767Z,1.40
2023-01-11T06:36:59.464Z,1.10
2023-01-11T06:39:28.799Z,1.90
2023-01-11T06:41:56.629Z,2.57
2023-01-11T06:44:24.473Z,2.80
2023-01-11T06:46:52.424Z,1.63
2023-01-11T06:49:20.285Z,3.97
2023-01-11T06:51:48.238Z,1.73
2023-01-11T06:54:22.010Z,1.43
2023-01-11T06:56:51.274Z,3.10
2023-01-11T06:59:19.155Z,1.83
2023-01-11T07:01:47.441Z,2.77
2023-01-11T07:04:15.790Z,2.40
2023-01-11T07:06:43.647Z,1.60
2023-01-11T07:09:11.604Z,1.33
2023-01-11T07:11:39.842Z,1.33
2023-01-11T07:14:09.665Z,2.43
2023-01-11T07:16:37.535Z,1.50
2023-01-11T07:19:05.424Z,2.10
2023-01-11T07:21:33.290Z,2.20
2023-01-11T07:24:01.981Z,2.33
2023-01-11T07:26:29.899Z,1.50
2023-01-11T07:28:57.831Z,1.50
2023-01-11T07:31:27.368Z,1.80
2023-01-11T07:33:55.265Z,1.40
2023-01-11T07:36:23.111Z,2.43
2023-01-11T07:38:51.178Z,1.73
2023-01-11T07:41:39.275Z,1.50
2023-01-11T07:44:07.341Z,1.50
2023-01-11T07:46:37.027Z,1.77
2023-01-11T07:49:04.867Z,2.30
2023-01-11T07:51:33.024Z,2.03
2023-01-11T07:54:02.714Z,3.57
2023-01-11T07:56:31.101Z,2.43
2023-01-11T07:58:59.334Z,1.83
2023-01-11T08:01:27.368Z,1.77
2023-01-11T08:03:56.605Z,1.97
2023-01-11T08:06:24.591Z,1.80
2023-01-11T08:08:52.513Z,2.60
2023-01-11T08:11:37.785Z,1.90
2023-01-11T08:14:23.067Z,1.70
2023-01-11T08:16:51.025Z,2.40
2023-01-11T08:19:20.449Z,2.73
2023-01-11T08:21:48.413Z,2.63
2023-01-11T08:24:16.511Z,2.27
2023-01-11T08:26:45.335Z,2.60
2023-01-11T08:29:14.985Z,3.57
2023-01-11T08:31:48.532Z,11.03
2023-01-11T08:34:16.803Z,9.30
2023-01-11T08:36:46.148Z,8.70
2023-01-11T08:39:14.331Z,7.97
2023-01-11T08:41:42.300Z,5.63
2023-01-11T08:44:11.876Z,3.10
2023-01-11T08:46:40.362Z,1.90
2023-01-11T08:49:12.163Z,2.00
2023-01-11T08:51:40.468Z,4.03
2023-01-11T08:54:12.907Z,3.07
2023-01-11T08:56:41.565Z,2.30
2023-01-11T08:59:11.407Z,2.23
2023-01-11T09:01:39.625Z,2.77
2023-01-11T09:04:23.213Z,3.47
2023-01-11T09:06:52.058Z,2.50
2023-01-11T09:09:21.281Z,2.40
2023-01-11T09:11:55.200Z,2.77
2023-01-11T09:14:23.608Z,2.47
2023-01-11T09:16:51.748Z,2.60
2023-01-11T09:19:19.791Z,2.50
2023-01-11T09:21:47.702Z,2.63
2023-01-11T09:24:15.804Z,2.57
2023-01-11T09:26:45.212Z,2.80
2023-01-11T09:29:14.818Z,2.83
2023-01-11T09:31:42.914Z,4.07
2023-01-11T09:34:12.899Z,3.07
2023-01-11T09:36:41.200Z,2.83
2023-01-11T09:39:12.792Z,3.13
2023-01-11T09:42:15.311Z,4.23
2023-01-11T09:44:51.040Z,2.43
2023-01-11T09:47:29.205Z,2.83
2023-01-11T09:49:59.682Z,4.90
2023-01-11T09:52:32.966Z,6.10
2023-01-11T09:55:03.045Z,3.13
2023-01-11T09:57:44.685Z,9.43
2023-01-11T10:00:23.757Z,45.30
2023-01-11T10:03:04.801Z,8.43
2023-01-11T10:05:46.663Z,9.73
2023-01-11T10:18:28.171Z,7.70
2023-01-11T10:18:30.649Z,6.70
2023-01-11T10:20:27.716Z,5.57
2023-01-11T10:23:04.362Z,5.33
2023-01-11T10:25:41.547Z,4.43
2023-01-11T10:28:23.063Z,8.80
2023-01-11T10:31:08.360Z,4.33
2023-01-11T10:34:09.324Z,8.70
2023-01-11T10:37:04.861Z,3.77
2023-01-11T10:39:59.261Z,6.00
2023-01-11T10:42:30.822Z,5.73
2023-01-11T10:45:04.368Z,4.33
2023-01-11T10:47:41.211Z,6.07
2023-01-11T10:50:20.668Z,5.13
2023-01-11T10:52:56.191Z,4.67
2023-01-11T10:55:29.727Z,4.50
2023-01-11T10:58:11.070Z,5.33
2023-01-11T11:00:47.557Z,6.17
2023-01-11T11:03:40.636Z,4.43
2023-01-11T11:06:18.914Z,6.63
2023-01-11T11:08:51.912Z,3.77
2023-01-11T11:11:24.308Z,4.57
2023-01-11T11:13:57.898Z,5.07
2023-01-11T11:16:39.309Z,4.93
2023-01-11T11:19:12.849Z,5.80
2023-01-11T11:21:43.968Z,7.73
2023-01-11T11:24:21.007Z,8.37
2023-01-11T11:27:00.619Z,8.57
2023-01-11T11:29:30.844Z,9.10
2023-01-11T11:32:01.635Z,8.47
2023-01-11T11:34:30.919Z,12.67
2023-01-11T11:37:01.876Z,6.93
2023-01-11T11:39:31.931Z,7.80
2023-01-11T11:42:06.875Z,8.70
2023-01-11T11:44:35.394Z,6.07
2023-01-11T11:47:04.980Z,10.17
2023-01-11T11:49:34.265Z,7.00
2023-01-11T11:52:06.326Z,7.27
2023-01-11T11:54:37.258Z,7.00
2023-01-11T11:57:16.670Z,6.40
2023-01-11T11:59:47.604Z,7.07
2023-01-11T12:02:24.656Z,6.90
2023-01-11T12:04:54.543Z,9.07
2023-01-11T12:07:28.115Z,8.27
2023-01-11T12:10:01.267Z,10.63
2023-01-11T12:12:29.839Z,7.87
2023-01-11T12:15:23.025Z,6.10
2023-01-11T12:17:51.517Z,10.87
2023-01-11T12:20:34.304Z,9.23
2023-01-11T12:23:24.093Z,8.87
2023-01-11T12:26:12.770Z,19.67
2023-01-11T12:29:07.022Z,16.43
2023-01-11T12:31:47.313Z,19.83
2023-01-11T12:34:30.070Z,26.53
2023-01-11T12:37:05.762Z,14.60
2023-01-11T12:39:44.242Z,11.00
2023-01-11T12:42:33.147Z,9.07
2023-01-11T12:45:16.040Z,10.17
2023-01-11T12:48:21.561Z,11.10
2023-01-11T12:51:02.587Z,7.13
2023-01-11T12:53:46.055Z,8.53
2023-01-11T12:56:37.623Z,12.17
2023-01-11T12:59:20.422Z,14.43
2023-01-11T13:01:56.092Z,19.37
2023-01-11T13:04:57.616Z,12.37
2023-01-11T13:07:41.110Z,8.93
2023-01-11T13:10:22.964Z,17.63
2023-01-11T13:12:58.317Z,9.00
2023-01-11T13:15:34.800Z,12.00
2023-01-11T13:18:14.709Z,6.33
2023-01-11T13:21:00.795Z,18.47
2023-01-11T13:23:39.284Z,16.77
2023-01-11T13:26:18.406Z,19.97
2023-01-11T13:28:52.582Z,11.87
2023-01-11T13:31:21.370Z,10.57
2023-01-11T13:33:55.045Z,14.10
2023-01-11T13:36:26.990Z,10.43
2023-01-11T13:39:00.313Z,23.57
2023-01-11T13:41:34.195Z,9.97
2023-01-11T13:44:07.712Z,17.43
2023-01-11T13:46:47.136Z,11.43
2023-01-11T13:49:26.807Z,10.77
2023-01-11T13:52:00.233Z,10.43
2023-01-11T13:54:39.190Z,11.73
2023-01-11T13:57:12.144Z,10.23
2023-01-11T13:59:47.076Z,9.07
2023-01-11T14:02:24.574Z,13.93
2023-01-11T14:04:58.008Z,10.47
2023-01-11T14:07:36.504Z,11.17
2023-01-11T14:10:30.901Z,11.47
2023-01-11T14:13:41.739Z,10.20
2023-01-11T14:16:20.505Z,13.53
2023-01-11T14:18:57.565Z,12.93
2023-01-11T14:21:32.017Z,12.00
2023-01-11T14:24:01.510Z,8.93
2023-01-11T14:27:00.521Z,14.13
2023-01-11T14:29:49.744Z,10.00
2023-01-11T14:32:46.504Z,11.03
2023-01-11T14:35:49.268Z,13.87
2023-01-11T14:38:30.630Z,9.90
2023-01-11T14:41:33.367Z,8.93
2023-01-11T14:44:16.021Z,9.70
2023-01-11T14:46:57.487Z,12.07
2023-01-11T14:49:43.589Z,10.63
2023-01-11T14:52:15.773Z,14.23
2023-01-11T14:54:46.412Z,11.17
2023-01-11T14:57:36.114Z,9.83
2023-01-11T15:00:05.482Z,9.60
2023-01-11T15:02:33.590Z,7.93
2023-01-11T15:05:33.982Z,10.77
2023-01-11T15:08:19.407Z,14.20
2023-01-11T15:10:59.423Z,12.27
2023-01-11T15:13:32.462Z,14.47
2023-01-11T15:16:35.121Z,10.17
2023-01-11T15:19:05.838Z,8.27
2023-01-11T15:21:41.933Z,13.30
2023-01-11T15:24:23.114Z,8.70
2023-01-11T15:26:51.588Z,11.70
2023-01-11T15:29:24.310Z,12.00
2023-01-11T15:32:07.822Z,12.27
2023-01-11T15:34:43.387Z,10.23
2023-01-11T15:37:36.724Z,10.10
2023-01-11T15:40:11.352Z,8.70
2023-01-11T15:43:10.837Z,11.43
2023-01-11T15:46:16.999Z,9.63
2023-01-11T15:49:04.315Z,9.87
2023-01-11T15:51:53.995Z,11.97
2023-01-11T15:54:47.280Z,11.00
2023-01-11T15:57:54.953Z,10.37
2023-01-11T16:00:39.726Z,9.13
2023-01-11T16:03:30.898Z,9.83
2023-01-11T16:06:09.003Z,15.10
2023-01-11T16:08:46.127Z,11.23
2023-01-11T16:11:23.540Z,10.77
2023-01-11T16:14:07.876Z,10.20
2023-01-11T16:16:41.543Z,13.10
2023-01-11T16:19:17.196Z,13.27
2023-01-11T16:21:49.335Z,10.27
2023-01-11T16:24:20.693Z,11.50
2023-01-11T16:26:56.305Z,12.00
2023-01-11T16:29:26.707Z,10.00
2023-01-11T16:31:57.631Z,11.20
2023-01-11T16:34:26.135Z,14.73
2023-01-11T16:36:54.071Z,8.80
2023-01-11T16:39:25.017Z,12.80
2023-01-11T16:41:58.332Z,11.20
2023-01-11T16:44:42.453Z,10.93
2023-01-11T16:47:17.950Z,13.57
2023-01-11T16:49:49.200Z,13.00
2023-01-11T16:52:46.687Z,9.53
2023-01-11T16:55:22.003Z,11.60
2023-01-11T16:57:55.236Z,11.57
2023-01-11T17:00:29.066Z,11.37
2023-01-11T17:03:21.192Z,12.23
2023-01-11T17:06:11.036Z,13.20
2023-01-11T17:08:40.616Z,10.23
2023-01-11T17:11:20.938Z,12.70
2023-01-11T17:14:21.204Z,15.80
2023-01-11T17:16:50.846Z,14.07
2023-01-11T17:19:21.082Z,13.13
2023-01-11T17:21:51.648Z,11.43
2023-01-11T17:24:23.930Z,11.80
2023-01-11T17:26:56.498Z,12.37
2023-01-11T17:29:31.218Z,11.77
2023-01-11T17:32:01.422Z,17.23
2023-01-11T17:34:32.859Z,16.80
2023-01-11T17:37:01.787Z,16.27
2023-01-11T17:39:33.348Z,18.47
2023-01-11T17:42:21.226Z,13.33
2023-01-11T17:45:10.679Z,12.37
2023-01-11T17:47:40.332Z,14.30
2023-01-11T17:50:19.952Z,10.53
2023-01-11T17:52:54.767Z,16.23
2023-01-11T17:55:25.881Z,13.80
2023-01-11T17:58:22.966Z,11.70
2023-01-11T18:01:19.037Z,20.03
2023-01-11T18:03:48.928Z,13.27
2023-01-11T18:06:24.993Z,13.60
2023-01-11T18:08:55.524Z,15.57
2023-01-11T18:11:26.180Z,13.97
2023-01-11T18:13:55.503Z,14.80
2023-01-11T18:16:25.608Z,13.20
2023-01-11T18:18:54.788Z,18.47
2023-01-11T18:21:42.496Z,14.97
2023-01-11T18:24:28.260Z,16.70
2023-01-11T18:27:08.783Z,17.47
2023-01-11T18:29:50.502Z,16.50
2023-01-11T18:32:21.003Z,16.43
2023-01-11T18:34:54.948Z,16.77
2023-01-11T18:37:23.210Z,13.30
2023-01-11T18:39:54.319Z,12.40
2023-01-11T18:42:28.976Z,14.03
2023-01-11T18:44:56.793Z,18.43
2023-01-11T18:47:28.488Z,14.27
2023-01-11T18:49:57.637Z,14.03
2023-01-11T18:52:27.706Z,17.87
2023-01-11T18:54:55.881Z,17.30
2023-01-11T18:57:24.414Z,17.63
2023-01-11T18:59:53.440Z,15.30
2023-01-11T19:02:26.140Z,14.80
2023-01-11T19:04:56.135Z,16.57
2023-01-11T19:07:24.581Z,13.47
2023-01-11T19:09:54.970Z,16.77
2023-01-11T19:12:23.885Z,12.67
2023-01-11T19:14:51.777Z,18.87
2023-01-11T19:17:19.996Z,16.73
2023-01-11T19:19:49.223Z,15.87
2023-01-11T19:22:17.177Z,16.27
2023-01-11T19:24:45.161Z,16.50
2023-01-11T19:27:13.570Z,17.80
2023-01-11T19:29:41.627Z,16.23
2023-01-11T19:32:10.134Z,13.83
2023-01-11T19:34:39.610Z,19.87
2023-01-11T19:37:09.002Z,19.27
2023-01-11T19:39:37.284Z,15.43
2023-01-11T19:42:05.425Z,17.20
2023-01-11T19:44:34.417Z,17.63
2023-01-11T19:47:11.452Z,20.37
2023-01-11T19:49:41.052Z,17.90
2023-01-11T19:52:14.031Z,16.43
2023-01-11T19:54:44.725Z,18.20
2023-01-11T19:57:14.459Z,16.90
2023-01-11T19:59:42.815Z,18.43
2023-01-11T20:02:11.906Z,19.57
2023-01-11T20:04:40.642Z,15.93
2023-01-11T20:07:11.603Z,19.80
2023-01-11T20:09:39.771Z,12.57
2023-01-11T20:12:09.114Z,16.03
2023-01-11T20:14:38.202Z,17.13
2023-01-11T20:17:06.135Z,17.30
2023-01-11T20:19:34.128Z,17.03
2023-01-11T20:22:01.971Z,14.27
2023-01-11T20:24:31.283Z,19.93
2023-01-11T20:27:00.904Z,16.63
2023-01-11T20:29:29.107Z,18.90
2023-01-11T20:32:13.363Z,12.87
2023-01-11T20:34:45.493Z,16.30
2023-01-11T20:37:15.070Z,13.87
2023-01-11T20:39:44.739Z,16.87
2023-01-11T20:42:13.122Z,20.83
2023-01-11T20:44:41.101Z,17.93
2023-01-11T20:47:09.214Z,14.43
2023-01-11T20:49:37.412Z,18.87
2023-01-11T20:52:05.588Z,16.17
2023-01-11T20:54:33.911Z,13.03
2023-01-11T20:57:05.614Z,17.20
2023-01-11T20:59:33.565Z,19.30
2023-01-11T21:02:01.568Z,18.77
2023-01-11T21:04:29.879Z,19.17
2023-01-11T21:06:57.838Z,18.57
2023-01-11T21:09:25.693Z,17.40
2023-01-11T21:11:54.199Z,19.83
2023-01-11T21:14:23.956Z,19.30
2023-01-11T21:16:54.947Z,17.60
2023-01-11T21:19:23.499Z,16.13
2023-01-11T21:21:51.453Z,16.43
2023-01-11T21:24:19.861Z,14.00
2023-01-11T21:26:48.364Z,14.40
2023-01-11T21:29:16.285Z,15.90
2023-01-11T21:31:45.718Z,13.40
2023-01-11T21:34:14.748Z,14.27
2023-01-11T21:36:44.316Z,15.20
2023-01-11T21:39:14.580Z,15.83
2023-01-11T21:41:58.692Z,19.37
2023-01-11T21:44:33.583Z,20.53
2023-01-11T21:47:04.267Z,16.23
2023-01-11T21:49:32.504Z,15.60
2023-01-11T21:52:00.523Z,13.73
2023-01-11T21:54:28.376Z,19.70
2023-01-11T21:56:56.199Z,16.57
2023-01-11T21:59:24.738Z,14.57
2023-01-11T22:01:52.747Z,14.97
2023-01-11T22:04:22.466Z,12.67
2023-01-11T22:06:58.486Z,15.00
2023-01-11T22:09:27.511Z,17.00
2023-01-11T22:11:55.548Z,15.53
2023-01-11T22:14:23.424Z,18.57
2023-01-11T22:16:51.608Z,13.53
2023-01-11T22:19:21.213Z,17.93
2023-01-11T22:21:49.498Z,13.77
2023-01-11T22:24:17.879Z,19.30
2023-01-11T22:26:45.912Z,16.23
2023-01-11T22:29:15.288Z,15.73
2023-01-11T22:31:49.013Z,13.93
2023-01-11T22:34:17.461Z,20.57
2023-01-11T22:36:46.799Z,15.37
2023-01-11T22:39:16.771Z,15.10
2023-01-11T22:41:45.971Z,15.23
2023-01-11T22:44:14.691Z,11.80
2023-01-11T22:46:43.476Z,14.70
2023-01-11T22:49:12.293Z,15.30
2023-01-11T22:51:41.538Z,15.00
2023-01-11T22:54:11.198Z,14.67
2023-01-11T22:56:39.293Z,13.70
2023-01-11T22:59:07.982Z,12.47
2023-01-11T23:01:37.390Z,13.70
2023-01-11T23:04:06.192Z,20.33
2023-01-11T23:06:35.251Z,15.40
2023-01-11T23:09:03.299Z,14.40
2023-01-11T23:11:54.301Z,15.30
2023-01-11T23:14:22.822Z,9.50
2023-01-11T23:16:50.900Z,11.77
2023-01-11T23:19:20.811Z,18.07
2023-01-11T23:21:49.447Z,15.50
2023-01-11T23:24:18.193Z,10.50
2023-01-11T23:26:47.461Z,11.33
2023-01-11T23:29:15.568Z,15.83
2023-01-11T23:31:43.855Z,11.70
2023-01-11T23:34:13.019Z,18.23
2023-01-11T23:36:43.127Z,14.60
2023-01-11T23:39:13.424Z,12.33
2023-01-11T23:41:58.893Z,12.70
2023-01-11T23:44:28.130Z,8.53
2023-01-11T23:47:13.361Z,9.07
2023-01-11T23:49:43.037Z,8.03
2023-01-11T23:52:11.421Z,13.87
2023-01-11T23:54:39.484Z,11.63
2023-01-11T23:57:07.315Z,10.87
2023-01-11T23:59:36.519Z,11.10
